ノヴォシビルスク の空港の天気 - METARとTAF

トルマチェヴォ空港(ノヴォシビルスク) ( UNNT / OVB ) - ロシア ノヴォシビルスク
飛行場実況気象(Metar)
観測時間10/22 17:30 OMST (10/22 11:30 UTC)
風向・風速西南西 6m/s
視程10km以上
天気現象
全天を覆う雲 雲底高度 1220m
気温5℃
湿度75%
気圧1006hPa
METARUNNT 221130Z 25006MPS 9999 OVC040CB 05/01 Q1006 R25/290160 R16/290160 NOSIG RMK QFE745/0993
過去の天気等 Google飛行場航空写真 Wunderground天気予報

過去48時間のMETAR

飛行場予報(TAF)
発表時間: 10/22 17:00 OMST (10/22 11:00 UTC)
予報対象時間: 22日18時 OMST ~ 23日18時 OMST
風向・風速西南西 7m/s 瞬間風速 15m/s
視程8000m
全天の8割程度の積乱雲 雲底高度 1220m
22日18時 OMST ~ 23日2時 OMST に一時的に
天気現象弱いしゅう雨
22日21時 OMST ~ 22日24時 OMST に徐々に
風向・風速南南西 3m/s 瞬間風速 8m/s
23日3時 OMST から
風向・風速南 5m/s 瞬間風速 12m/s
視程8000m
天気現象弱いしゅう雪雨
全天の8割程度の積乱雲 雲底高度 1220m
23日3時 OMST ~ 23日9時 OMST に一時的に
全天の8割程度の積乱雲 雲底高度 490m
23日11時 OMST ~ 23日18時 OMST に一時的に
風向・風速南西 7m/s 瞬間風速 15m/s
全天の8割程度の積乱雲 雲底高度 490m
TAF UNNT 221100Z 2212/2312 25007G15MPS 8000 BKN040CB
TEMPO 2212/2220 -SHRA
BECMG 2215/2218 21003G08MPS
FM222100 18005G12MPS 8000 -SHSNRA BKN040CB
TEMPO 2221/2303 BKN016CB
TEMPO 2305/2312 23007G15MPS BKN016CB